createdAt,value
2019-01-03T00:01:15.337Z,56.00
2019-01-03T00:03:48.152Z,56.00
2019-01-03T00:06:34.254Z,56.20
2019-01-03T00:09:04.181Z,56.30
2019-01-03T00:11:34.060Z,56.60
2019-01-03T00:14:19.937Z,56.70
2019-01-03T00:16:49.918Z,56.60
2019-01-03T00:19:19.779Z,56.70
2019-01-03T00:21:49.654Z,56.70
2019-01-03T00:24:35.805Z,56.80
2019-01-03T00:27:08.630Z,56.90
2019-01-03T00:29:38.497Z,57.00
2019-01-03T00:32:17.439Z,57.30
2019-01-03T00:34:47.335Z,57.20
2019-01-03T00:37:23.221Z,57.30
2019-01-03T00:39:55.789Z,57.40
2019-01-03T00:42:31.465Z,57.70
2019-01-03T00:45:01.334Z,57.60
2019-01-03T00:47:47.261Z,57.80
2019-01-03T00:50:26.123Z,57.80
2019-01-03T00:53:12.253Z,58.00
2019-01-03T00:55:58.452Z,58.10
2019-01-03T00:58:44.545Z,58.20
2019-01-03T01:01:14.598Z,58.40
2019-01-03T01:04:00.919Z,58.50
2019-01-03T01:06:47.171Z,58.50
2019-01-03T01:09:22.773Z,58.60
2019-01-03T01:12:10.745Z,58.90
2019-01-03T01:14:55.316Z,58.90
2019-01-03T01:17:36.964Z,58.70
2019-01-03T01:20:11.028Z,59.10
2019-01-03T01:22:49.485Z,59.10
2019-01-03T01:25:19.366Z,59.10
2019-01-03T01:27:49.225Z,59.10
2019-01-03T01:30:30.870Z,59.20
2019-01-03T01:33:16.955Z,59.60
2019-01-03T01:36:03.178Z,59.60
2019-01-03T01:38:33.051Z,59.70
2019-01-03T01:41:02.929Z,59.70
2019-01-03T01:43:35.766Z,59.70
2019-01-03T01:46:21.674Z,59.80
2019-01-03T01:49:00.786Z,60.00
2019-01-03T01:51:36.056Z,60.00
2019-01-03T01:54:05.943Z,60.20
2019-01-03T01:56:52.157Z,60.20
2019-01-03T01:59:22.946Z,60.20
2019-01-03T02:01:58.765Z,60.50
2019-01-03T02:04:31.396Z,60.30
2019-01-03T02:07:16.124Z,60.40
2019-01-03T02:10:02.315Z,60.70
2019-01-03T02:12:41.216Z,60.60
2019-01-03T02:15:11.088Z,60.70
2019-01-03T02:17:47.032Z,60.80
2019-01-03T02:20:33.051Z,60.80
2019-01-03T02:23:17.969Z,60.80
2019-01-03T02:25:50.588Z,61.00
2019-01-03T02:28:32.389Z,61.00
2019-01-03T02:31:18.355Z,61.00
2019-01-03T02:33:57.261Z,61.20
2019-01-03T02:36:33.169Z,61.30
2019-01-03T02:39:19.204Z,61.40
2019-01-03T02:41:55.029Z,61.50
2019-01-03T02:44:27.849Z,61.50
2019-01-03T02:47:12.844Z,61.50
2019-01-03T02:49:59.097Z,61.60
2019-01-03T02:52:47.101Z,61.60
2019-01-03T02:55:19.757Z,61.60
2019-01-03T02:58:04.352Z,61.80
2019-01-03T03:00:34.237Z,62.00
2019-01-03T03:03:06.762Z,61.70
2019-01-03T03:05:52.952Z,61.90
2019-01-03T03:08:22.836Z,62.10
2019-01-03T03:11:04.682Z,61.80
2019-01-03T03:13:50.781Z,62.20
2019-01-03T03:16:36.412Z,62.10
2019-01-03T03:19:24.403Z,62.10
2019-01-03T03:21:56.910Z,62.20
2019-01-03T03:24:38.575Z,62.20
2019-01-03T03:27:08.444Z,62.30
2019-01-03T03:29:38.309Z,62.60
2019-01-03T03:32:10.947Z,63.50
2019-01-03T03:34:57.103Z,62.50
2019-01-03T03:37:43.216Z,62.70
2019-01-03T03:40:16.194Z,62.90
2019-01-03T03:42:51.813Z,62.80
2019-01-03T03:45:37.915Z,62.80
2019-01-03T03:48:10.206Z,62.90
2019-01-03T03:50:43.075Z,63.20
2019-01-03T03:53:28.977Z,63.20
2019-01-03T03:56:01.301Z,63.10
2019-01-03T03:58:37.203Z,63.20
2019-01-03T04:01:23.118Z,63.20
2019-01-03T04:03:59.126Z,63.50
2019-01-03T04:06:44.113Z,63.40
2019-01-03T04:09:16.711Z,63.60
2019-01-03T04:11:49.510Z,63.50
2019-01-03T04:14:31.435Z,63.60
2019-01-03T04:17:16.161Z,63.70
2019-01-03T04:19:46.041Z,63.60
2019-01-03T04:22:21.599Z,63.50
2019-01-03T04:25:06.532Z,63.80
2019-01-03T04:27:42.450Z,63.80
2019-01-03T04:30:30.410Z,63.90
2019-01-03T04:33:12.162Z,63.80
2019-01-03T04:35:47.866Z,63.70
2019-01-03T04:38:29.833Z,63.70
2019-01-03T04:41:05.656Z,63.90
2019-01-03T04:43:47.551Z,64.00
2019-01-03T04:46:32.566Z,64.00
2019-01-03T04:49:17.489Z,64.20
2019-01-03T04:52:02.180Z,64.10
2019-01-03T04:54:43.658Z,64.20
2019-01-03T04:57:19.180Z,64.40
2019-01-03T04:59:58.041Z,64.40
2019-01-03T05:02:45.754Z,64.70
2019-01-03T05:05:18.128Z,64.70
2019-01-03T05:08:03.858Z,64.70
2019-01-03T05:10:49.883Z,64.90
2019-01-03T05:13:22.633Z,65.00
2019-01-03T05:16:08.487Z,65.40
2019-01-03T05:18:47.452Z,65.10
2019-01-03T05:21:32.141Z,65.40
2019-01-03T05:24:18.313Z,65.40
2019-01-03T05:26:54.113Z,65.50
2019-01-03T05:29:38.985Z,65.80
2019-01-03T05:32:24.925Z,66.90
2019-01-03T05:35:03.761Z,66.10
2019-01-03T05:37:36.429Z,66.30
2019-01-03T05:40:22.640Z,66.60
2019-01-03T05:42:52.510Z,66.60
2019-01-03T05:45:22.389Z,66.80
2019-01-03T05:47:55.208Z,66.80
2019-01-03T05:50:25.069Z,67.00
2019-01-03T05:53:10.890Z,67.10
2019-01-03T05:55:57.101Z,67.30
2019-01-03T05:58:33.085Z,67.20
2019-01-03T06:01:05.884Z,67.30
2019-01-03T06:03:50.873Z,67.30
2019-01-03T06:06:20.725Z,67.50
2019-01-03T06:09:05.478Z,67.40
2019-01-03T06:11:38.065Z,67.70
2019-01-03T06:14:10.758Z,67.70
2019-01-03T06:16:52.801Z,67.90
2019-01-03T06:19:28.668Z,67.50
2019-01-03T06:21:58.515Z,67.90
2019-01-03T06:24:28.394Z,67.70
2019-01-03T06:27:04.288Z,68.00
2019-01-03T06:29:34.217Z,68.10
2019-01-03T06:32:04.072Z,68.00
2019-01-03T06:34:49.940Z,68.10
2019-01-03T06:37:36.157Z,67.90
2019-01-03T06:40:09.690Z,68.10
2019-01-03T06:42:39.637Z,68.10
2019-01-03T06:45:27.646Z,68.20
2019-01-03T06:48:14.268Z,68.10
2019-01-03T06:51:00.479Z,68.20
2019-01-03T06:53:46.642Z,68.40
2019-01-03T06:56:22.546Z,68.50
2019-01-03T06:59:07.513Z,68.50
2019-01-03T07:01:53.665Z,68.40
2019-01-03T07:04:29.490Z,68.60
2019-01-03T07:07:15.496Z,68.60
2019-01-03T07:09:54.394Z,68.60
2019-01-03T07:12:27.192Z,68.60
2019-01-03T07:15:11.907Z,68.60
2019-01-03T07:17:41.800Z,68.60
2019-01-03T07:20:14.713Z,68.50
2019-01-03T07:22:59.783Z,68.40
2019-01-03T07:25:38.154Z,68.60
2019-01-03T07:28:24.128Z,68.60
2019-01-03T07:31:10.420Z,68.60
2019-01-03T07:33:46.297Z,68.40
2019-01-03T07:36:34.008Z,68.40
2019-01-03T07:39:12.326Z,68.50
2019-01-03T07:41:44.915Z,68.30
2019-01-03T07:44:29.745Z,68.50
2019-01-03T07:47:08.478Z,68.50
2019-01-03T07:49:54.577Z,68.60
2019-01-03T07:52:24.443Z,68.70
2019-01-03T07:55:09.198Z,68.60
2019-01-03T07:57:50.618Z,68.80
2019-01-03T08:00:38.358Z,68.60
2019-01-03T08:03:24.437Z,68.60
2019-01-03T08:05:56.842Z,68.70
2019-01-03T08:08:38.549Z,68.70
2019-01-03T08:11:14.106Z,68.80
2019-01-03T08:13:44.639Z,68.70
2019-01-03T08:16:20.602Z,69.00
2019-01-03T08:18:56.543Z,68.90
2019-01-03T08:21:29.460Z,69.00
2019-01-03T08:24:05.394Z,69.80
2019-01-03T08:26:51.679Z,69.00
2019-01-03T08:29:21.553Z,69.20
2019-01-03T08:31:51.423Z,69.30
2019-01-03T08:34:33.340Z,69.50
2019-01-03T08:37:19.281Z,69.50
2019-01-03T08:40:05.392Z,69.80
2019-01-03T08:42:50.273Z,69.80
2019-01-03T08:45:20.130Z,69.60
2019-01-03T08:48:08.072Z,69.80
2019-01-03T08:50:46.748Z,70.00
2019-01-03T08:53:32.605Z,69.90
2019-01-03T08:56:18.725Z,70.00
2019-01-03T08:59:04.843Z,70.50
2019-01-03T09:01:51.136Z,70.60
2019-01-03T09:04:35.947Z,70.70
2019-01-03T09:07:22.117Z,70.70
2019-01-03T09:10:08.397Z,71.60
2019-01-03T09:12:38.268Z,70.50
2019-01-03T09:15:17.112Z,70.30
2019-01-03T09:17:47.012Z,70.50
2019-01-03T09:20:19.730Z,70.70
2019-01-03T09:23:05.633Z,70.70
2019-01-03T09:25:50.692Z,70.60
2019-01-03T09:28:36.632Z,70.40
2019-01-03T09:31:12.445Z,70.50
2019-01-03T09:34:00.441Z,70.60
2019-01-03T09:36:35.720Z,70.60
2019-01-03T09:39:22.478Z,71.00
2019-01-03T09:42:08.602Z,70.60
2019-01-03T09:44:41.378Z,70.40
2019-01-03T09:47:09.630Z,70.50
2019-01-03T09:49:37.877Z,70.30
2019-01-03T09:52:06.123Z,70.10
2019-01-03T09:54:34.564Z,69.80
2019-01-03T09:57:02.804Z,69.80
2019-01-03T09:59:31.121Z,69.70
2019-01-03T10:01:59.399Z,69.80
2019-01-03T10:04:27.711Z,70.00
2019-01-03T10:06:55.990Z,70.00
2019-01-03T10:09:24.265Z,70.00
2019-01-03T10:11:52.498Z,70.00
2019-01-03T10:14:20.733Z,70.00
2019-01-03T10:16:48.953Z,70.00
2019-01-03T10:19:17.323Z,70.00
2019-01-03T10:21:45.605Z,69.80
2019-01-03T10:24:13.829Z,69.80
2019-01-03T10:26:42.058Z,69.70
2019-01-03T10:29:10.462Z,69.60
2019-01-03T10:31:38.761Z,69.50
2019-01-03T10:34:07.081Z,69.80
2019-01-03T10:36:35.392Z,69.60
2019-01-03T10:39:05.116Z,69.20
2019-01-03T10:41:33.437Z,69.40
2019-01-03T10:44:01.647Z,69.60
2019-01-03T10:46:29.864Z,69.40
2019-01-03T10:48:58.103Z,69.50
2019-01-03T10:51:26.341Z,69.40
2019-01-03T10:53:54.565Z,69.20
2019-01-03T10:56:22.801Z,69.10
2019-01-03T10:58:51.088Z,69.30
2019-01-03T11:01:19.317Z,69.40
2019-01-03T11:03:47.587Z,69.40
2019-01-03T11:06:15.929Z,69.40
2019-01-03T11:08:44.226Z,69.30
2019-01-03T11:11:12.457Z,69.30
2019-01-03T11:13:40.677Z,69.20
2019-01-03T11:16:08.969Z,69.10
2019-01-03T11:18:37.358Z,69.10
2019-01-03T11:21:05.586Z,69.00
2019-01-03T11:23:33.807Z,69.10
2019-01-03T11:26:02.049Z,69.10
2019-01-03T11:28:30.449Z,69.10
2019-01-03T11:30:58.707Z,69.10
2019-01-03T11:33:26.912Z,68.70
2019-01-03T11:35:55.128Z,68.70
2019-01-03T11:38:23.375Z,68.90
2019-01-03T11:40:51.600Z,69.00
2019-01-03T11:43:19.829Z,68.90
2019-01-03T11:45:48.047Z,68.70
2019-01-03T11:48:16.293Z,68.60
2019-01-03T11:50:44.521Z,68.70
2019-01-03T11:53:12.758Z,68.40
2019-01-03T11:55:40.973Z,68.80
2019-01-03T11:58:09.228Z,68.90
2019-01-03T12:00:37.453Z,68.80
2019-01-03T12:03:05.685Z,68.70
2019-01-03T12:05:33.901Z,68.40
2019-01-03T12:08:02.135Z,68.20
2019-01-03T12:10:30.546Z,68.10
2019-01-03T12:12:59.071Z,68.20
2019-01-03T12:15:27.326Z,68.20
2019-01-03T12:17:55.553Z,68.20
2019-01-03T12:20:23.789Z,68.00
2019-01-03T12:22:52.062Z,67.80
2019-01-03T12:25:20.273Z,67.80
2019-01-03T12:27:48.506Z,67.80
2019-01-03T12:30:16.737Z,67.70
2019-01-03T12:32:44.977Z,67.50
2019-01-03T12:35:13.189Z,68.00
2019-01-03T12:37:41.424Z,67.80
2019-01-03T12:40:09.713Z,67.30
2019-01-03T12:42:37.940Z,67.50
2019-01-03T12:45:07.204Z,67.50
2019-01-03T12:47:35.448Z,67.50
2019-01-03T12:50:06.072Z,67.40
2019-01-03T12:52:34.321Z,67.10
2019-01-03T12:55:02.679Z,67.10
2019-01-03T12:57:30.952Z,66.80
2019-01-03T12:59:59.292Z,66.80
2019-01-03T13:02:27.545Z,66.70
2019-01-03T13:04:55.840Z,66.90
2019-01-03T13:07:24.054Z,67.40
2019-01-03T13:09:52.423Z,67.20
2019-01-03T13:12:20.637Z,67.30
2019-01-03T13:14:48.874Z,67.30
2019-01-03T13:17:17.351Z,67.50
2019-01-03T13:19:45.742Z,67.30
2019-01-03T13:22:14.011Z,67.50
2019-01-03T13:24:42.406Z,67.70
2019-01-03T13:27:10.670Z,67.60
2019-01-03T13:29:38.897Z,67.60
2019-01-03T13:32:07.129Z,67.50
2019-01-03T13:34:35.361Z,67.40
2019-01-03T13:37:03.573Z,67.60
2019-01-03T13:39:31.809Z,67.70
2019-01-03T13:42:00.031Z,67.30
2019-01-03T13:44:28.358Z,67.00
2019-01-03T13:46:56.590Z,67.30
2019-01-03T13:49:24.845Z,67.50
2019-01-03T13:51:53.057Z,67.30
2019-01-03T13:54:21.300Z,67.10
2019-01-03T13:56:49.525Z,67.00
2019-01-03T13:59:17.757Z,67.10
2019-01-03T14:01:45.970Z,67.20
2019-01-03T14:04:14.214Z,67.00
2019-01-03T14:06:42.441Z,67.00
2019-01-03T14:09:10.665Z,66.90
2019-01-03T14:11:38.876Z,67.00
2019-01-03T14:14:07.105Z,67.10
2019-01-03T14:16:35.325Z,66.60
2019-01-03T14:19:04.398Z,67.00
2019-01-03T14:21:32.628Z,66.50
2019-01-03T14:24:00.845Z,66.40
2019-01-03T14:26:29.158Z,65.90
2019-01-03T14:28:57.424Z,65.80
2019-01-03T14:31:25.644Z,65.90
2019-01-03T14:33:54.025Z,65.90
2019-01-03T14:36:22.260Z,65.40
2019-01-03T14:38:50.479Z,65.30
2019-01-03T14:41:18.795Z,65.30
2019-01-03T14:43:47.058Z,65.50
2019-01-03T14:46:15.284Z,65.50
2019-01-03T14:48:43.509Z,65.20
2019-01-03T14:51:11.807Z,65.40
2019-01-03T14:53:40.025Z,65.40
2019-01-03T14:56:08.261Z,65.30
2019-01-03T14:58:36.538Z,65.20
2019-01-03T15:01:04.799Z,65.20
2019-01-03T15:03:33.025Z,65.20
2019-01-03T15:06:01.265Z,65.20
2019-01-03T15:08:29.483Z,65.30
2019-01-03T15:10:57.785Z,65.30
2019-01-03T15:13:26.001Z,65.20
2019-01-03T15:15:54.294Z,65.40
2019-01-03T15:18:22.562Z,65.20
2019-01-03T15:20:52.498Z,65.00
2019-01-03T15:23:20.709Z,65.00
2019-01-03T15:25:49.145Z,65.10
2019-01-03T15:28:17.362Z,65.30
2019-01-03T15:30:45.760Z,65.00
2019-01-03T15:33:13.983Z,65.20
2019-01-03T15:35:42.291Z,65.40
2019-01-03T15:38:10.519Z,65.50
2019-01-03T15:40:38.766Z,65.40
2019-01-03T15:43:06.993Z,65.70
2019-01-03T15:45:35.337Z,65.70
2019-01-03T15:48:03.565Z,65.90
2019-01-03T15:50:31.984Z,65.70
2019-01-03T15:53:00.263Z,65.90
2019-01-03T15:55:28.481Z,66.00
2019-01-03T15:57:56.753Z,66.00
2019-01-03T16:00:24.968Z,66.10
2019-01-03T16:02:53.197Z,65.90
2019-01-03T16:05:21.427Z,66.60
2019-01-03T16:07:49.650Z,66.40
2019-01-03T16:10:17.873Z,66.10
2019-01-03T16:12:46.170Z,66.10
2019-01-03T16:15:14.406Z,66.10
2019-01-03T16:17:43.082Z,66.20
2019-01-03T16:20:11.338Z,66.20
2019-01-03T16:22:39.901Z,66.10
2019-01-03T16:25:08.147Z,66.20
2019-01-03T16:27:36.382Z,66.30
2019-01-03T16:30:07.342Z,66.30
2019-01-03T16:32:35.575Z,66.40
2019-01-03T16:35:03.824Z,66.40
2019-01-03T16:37:32.081Z,66.60
2019-01-03T16:40:00.420Z,66.70
2019-01-03T16:42:39.676Z,66.60
2019-01-03T16:45:09.633Z,66.70
2019-01-03T16:47:37.870Z,66.60
2019-01-03T16:50:11.050Z,66.60
2019-01-03T16:52:39.328Z,66.80
2019-01-03T16:55:07.543Z,66.60
2019-01-03T16:57:35.773Z,66.70
2019-01-03T17:00:05.154Z,66.60
2019-01-03T17:02:33.408Z,66.40
2019-01-03T17:05:01.624Z,66.50
2019-01-03T17:07:29.885Z,66.50
2019-01-03T17:09:58.151Z,66.60
2019-01-03T17:12:26.376Z,66.70
2019-01-03T17:14:54.636Z,67.40
2019-01-03T17:17:22.948Z,66.80
2019-01-03T17:19:51.238Z,66.60
2019-01-03T17:22:19.465Z,66.80
2019-01-03T17:24:47.692Z,66.90
2019-01-03T17:27:15.987Z,66.80
2019-01-03T17:29:44.318Z,67.00
2019-01-03T17:32:12.545Z,66.90
2019-01-03T17:34:40.795Z,66.80
2019-01-03T17:37:09.013Z,66.90
2019-01-03T17:39:37.251Z,67.10
2019-01-03T17:42:05.473Z,67.00
2019-01-03T17:44:33.708Z,67.10
2019-01-03T17:47:01.983Z,67.20
2019-01-03T17:49:30.210Z,67.20
2019-01-03T17:51:58.518Z,67.10
2019-01-03T17:54:26.799Z,67.20
2019-01-03T17:56:55.128Z,67.20
2019-01-03T17:59:23.425Z,67.40
2019-01-03T18:01:51.665Z,67.60
2019-01-03T18:04:19.920Z,67.70
2019-01-03T18:06:48.309Z,67.80
2019-01-03T18:09:16.520Z,68.00
2019-01-03T18:11:44.767Z,68.00
2019-01-03T18:14:12.992Z,67.90
2019-01-03T18:16:41.212Z,67.90
2019-01-03T18:19:09.444Z,68.00
2019-01-03T18:21:37.684Z,68.10
2019-01-03T18:24:05.921Z,68.00
2019-01-03T18:26:34.161Z,68.10
2019-01-03T18:29:02.397Z,68.20
2019-01-03T18:31:30.666Z,68.40
2019-01-03T18:33:58.942Z,68.40
2019-01-03T18:36:27.152Z,68.60
2019-01-03T18:38:55.391Z,68.60
2019-01-03T18:41:23.889Z,68.60
2019-01-03T18:43:52.154Z,68.60
2019-01-03T18:46:20.481Z,68.60
2019-01-03T18:48:48.775Z,68.60
2019-01-03T18:51:17.013Z,68.60
2019-01-03T18:53:45.241Z,68.60
2019-01-03T18:56:13.511Z,68.60
2019-01-03T18:58:41.801Z,68.60
2019-01-03T19:01:10.025Z,68.80
2019-01-03T19:03:38.261Z,68.70
2019-01-03T19:06:06.501Z,68.60
2019-01-03T19:08:34.724Z,68.70
2019-01-03T19:11:03.116Z,68.50
2019-01-03T19:13:31.355Z,68.20
2019-01-03T19:15:59.591Z,68.30
2019-01-03T19:18:27.799Z,68.50
2019-01-03T19:20:56.061Z,68.30
2019-01-03T19:23:24.357Z,68.20
2019-01-03T19:25:52.764Z,68.20
2019-01-03T19:28:21.066Z,68.10
2019-01-03T19:30:49.344Z,68.00
2019-01-03T19:33:17.637Z,68.00
2019-01-03T19:35:45.894Z,68.20
2019-01-03T19:38:14.106Z,68.10
2019-01-03T19:40:42.349Z,68.10
2019-01-03T19:43:10.662Z,68.00
2019-01-03T19:45:38.896Z,68.00
2019-01-03T19:48:07.262Z,67.80
2019-01-03T19:50:35.570Z,67.80
2019-01-03T19:53:03.813Z,67.70
2019-01-03T19:55:32.041Z,67.60
2019-01-03T19:58:00.335Z,67.70
2019-01-03T20:00:28.634Z,67.60
2019-01-03T20:02:56.854Z,67.80
2019-01-03T20:05:25.089Z,68.00
2019-01-03T20:07:53.309Z,68.00
2019-01-03T20:10:21.546Z,68.20
2019-01-03T20:12:49.836Z,68.40
2019-01-03T20:15:18.057Z,68.40
2019-01-03T20:17:46.769Z,68.40
2019-01-03T20:20:14.997Z,68.20
2019-01-03T20:22:43.230Z,68.20
2019-01-03T20:25:11.456Z,68.20
2019-01-03T20:27:39.684Z,68.40
2019-01-03T20:30:09.845Z,68.20
2019-01-03T20:32:38.265Z,68.20
2019-01-03T20:35:06.836Z,68.50
2019-01-03T20:37:35.073Z,68.50
2019-01-03T20:40:04.280Z,68.70
2019-01-03T20:42:32.536Z,68.60
2019-01-03T20:45:00.761Z,68.50
2019-01-03T20:47:28.997Z,68.70
2019-01-03T20:49:57.224Z,68.70
2019-01-03T20:52:25.461Z,68.70
2019-01-03T20:54:53.677Z,68.60
2019-01-03T20:57:21.917Z,68.70
2019-01-03T20:59:50.141Z,68.70
2019-01-03T21:02:18.375Z,68.80
2019-01-03T21:04:46.691Z,68.70
2019-01-03T21:07:14.928Z,68.70
2019-01-03T21:09:43.142Z,68.70
2019-01-03T21:12:11.389Z,68.70
2019-01-03T21:14:39.619Z,68.60
2019-01-03T21:17:07.921Z,68.50
2019-01-03T21:19:36.203Z,68.30
2019-01-03T21:22:04.430Z,68.10
2019-01-03T21:24:32.704Z,68.20
2019-01-03T21:27:00.969Z,68.10
2019-01-03T21:29:29.207Z,68.10
2019-01-03T21:31:57.448Z,68.10
2019-01-03T21:34:25.676Z,68.10
2019-01-03T21:36:53.903Z,68.10
2019-01-03T21:39:22.217Z,68.00
2019-01-03T21:41:50.525Z,68.00
2019-01-03T21:44:18.745Z,68.00
2019-01-03T21:46:46.960Z,67.90
2019-01-03T21:49:15.202Z,68.00
2019-01-03T21:51:44.438Z,67.80
2019-01-03T21:54:14.365Z,67.80
2019-01-03T21:56:44.202Z,68.00
2019-01-03T21:59:14.125Z,68.00
2019-01-03T22:01:47.254Z,68.20
2019-01-03T22:05:12.947Z,68.20
2019-01-03T22:09:51.411Z,68.00
2019-01-03T22:12:21.506Z,68.30
2019-01-03T22:14:52.686Z,68.20
2019-01-03T22:17:25.461Z,68.20
2019-01-03T22:19:55.074Z,68.30
2019-01-03T22:22:29.147Z,68.20
2019-01-03T22:25:00.677Z,68.20
2019-01-03T22:27:28.897Z,68.60
2019-01-03T22:29:57.139Z,68.50
2019-01-03T22:32:25.353Z,68.70
2019-01-03T22:34:53.602Z,68.70
2019-01-03T22:37:21.817Z,68.60
2019-01-03T22:39:50.049Z,68.60
2019-01-03T22:42:18.263Z,68.70
2019-01-03T22:44:46.617Z,68.50
2019-01-03T22:47:14.871Z,68.60
2019-01-03T22:49:43.100Z,68.60
2019-01-03T22:52:14.337Z,68.70
2019-01-03T22:54:42.569Z,68.80
2019-01-03T22:57:10.793Z,68.80
2019-01-03T22:59:39.031Z,68.80
2019-01-03T23:02:07.249Z,68.80
2019-01-03T23:04:35.488Z,68.80
2019-01-03T23:07:03.772Z,68.70
2019-01-03T23:09:32.022Z,68.80
2019-01-03T23:12:00.236Z,68.80
2019-01-03T23:14:28.473Z,68.70
2019-01-03T23:16:56.690Z,68.70
2019-01-03T23:19:24.925Z,68.80
2019-01-03T23:21:53.145Z,68.50
2019-01-03T23:24:21.389Z,68.70
2019-01-03T23:26:49.629Z,68.90
2019-01-03T23:29:17.866Z,69.00
2019-01-03T23:31:46.081Z,69.30
2019-01-03T23:34:14.294Z,69.30
2019-01-03T23:36:42.543Z,69.20
2019-01-03T23:39:10.749Z,68.90
2019-01-03T23:41:39.230Z,69.10
2019-01-03T23:44:07.639Z,69.10
2019-01-03T23:46:37.528Z,69.00
2019-01-03T23:49:05.749Z,69.30
2019-01-03T23:51:34.240Z,69.10
2019-01-03T23:54:02.471Z,69.40
2019-01-03T23:56:30.696Z,69.20
2019-01-03T23:58:58.923Z,69.20
